Ro Fjord — LFEI — position and weather

sailwx.info

Track history (hours):
 
Tides and Currents Weather Stations Pressure Air Temp Water Temp Dewpoint Dewpoint Depression Visibility Wind Speed Wind Dir Waves Ship Positions

Ro Fjord

Last reported at 2016-Apr-30 20:29 UTC. Time now 2016-May-01 17:32 UTC.
Position N 59°54' E 005°31'.

Length 72 m; draft 7 m.

Type: Cargo ship. MMSI: 257430000.

Date/timePositionNaut miles runAvg speedWind from/ knotsBaromVisibWave heightAir tempDewpointWater temp
2016-Apr-30 20:29N 59°54' E 005°31'9 9.8
2016-Apr-30 19:33N 59°45' E 005°31'29 9.5
2016-Apr-30 16:31N 59°17' E 005°20'9 9.0
2016-Apr-30 15:34N 59°09' E 005°26'9 9.1
2016-Apr-30 14:32N 59°15' E 005°40'9 8.8
2016-Apr-30 13:33N 59°20' E 005°53'4 3.1
2016-Apr-30 12:06N 59°24' E 005°52'1 0.7
2016-Apr-30 10:11N 59°23' E 005°54'710.5
2016-Apr-30 09:33N 59°18' E 005°47'1211.6
2016-Apr-30 08:33N 59°10' E 005°30'7 7.3
2016-Apr-30 07:32N 59°16' E 005°20'18 9.0
2016-Apr-30 05:29N 59°34' E 005°14'1010.5
2016-Apr-30 04:33N 59°42' E 005°25'1010.2
2016-Apr-30 03:33N 59°51' E 005°33'0 0.0
2016-Apr-28 06:33N 59°51' E 005°33'10 9.3
2016-Apr-28 05:31N 59°42' E 005°26'27 9.0
2016-Apr-28 02:33N 59°16' E 005°20'8 7.5
2016-Apr-28 01:33N 59°09' E 005°29'9 9.0
2016-Apr-28 00:33N 59°15' E 005°42'9 9.3
2016-Apr-27 23:33N 59°22' E 005°55'3 1.4
2016-Apr-27 21:29N 59°24' E 005°52'7 7.3
2016-Apr-27 20:33N 59°18' E 005°48'1111.5
2016-Apr-27 19:33N 59°10' E 005°31'27 8.7
2016-Apr-27 16:26N 59°36' E 005°17'1112.0
2016-Apr-27 15:33N 59°45' E 005°30'  
2016-Apr-23 22:33N 59°52' E 005°33'9 9.0
2016-Apr-23 21:33N 59°43' E 005°28'25 8.3
2016-Apr-23 18:33N 59°19' E 005°20'9 9.0
2016-Apr-23 17:33N 59°10' E 005°22'9 8.9
2016-Apr-23 16:33N 59°13' E 005°38'1010.0
2016-Apr-23 15:33N 59°20' E 005°53'5 2.0
2016-Apr-23 13:21N 59°24' E 005°52'4 5.3
2016-Apr-23 12:33N 59°20' E 005°54'1010.4
2016-Apr-23 11:33N 59°13' E 005°39'10 9.6
2016-Apr-23 10:33N 59°09' E 005°22'21 9.6
2016-Apr-23 08:19N 59°30' E 005°13'911.4
2016-Apr-23 07:31N 59°39' E 005°19'1111.3
2016-Apr-23 06:33N 59°47' E 005°33'  
2016-Apr-20 23:22N 59°56' E 005°29'910.4
2016-Apr-20 22:33N 59°47' E 005°33'10 9.8
2016-Apr-20 21:30N 59°39' E 005°21'  
Track history (hours):
 
Tides and Currents Weather Stations Pressure Air Temp Water Temp Dewpoint Dewpoint Depression Visibility Wind Speed Wind Dir Waves Ship Positions

Ro Fjord

Last reported at 2016-Apr-30 20:29 UTC. Time now 2016-May-01 17:32 UTC.
Position N 59°54' E 005°31'.

Length 72 m; draft 7 m.

Type: Cargo ship. MMSI: 257430000.

Date/timePositionNaut miles runAvg speedWind from/ knotsBaromVisibWave heightAir tempDewpointWater temp
2016-Apr-30 20:29N 59°54' E 005°31'9 9.8
2016-Apr-30 19:33N 59°45' E 005°31'29 9.5
2016-Apr-30 16:31N 59°17' E 005°20'9 9.0
2016-Apr-30 15:34N 59°09' E 005°26'9 9.1
2016-Apr-30 14:32N 59°15' E 005°40'9 8.8
2016-Apr-30 13:33N 59°20' E 005°53'4 3.1
2016-Apr-30 12:06N 59°24' E 005°52'1 0.7
2016-Apr-30 10:11N 59°23' E 005°54'710.5
2016-Apr-30 09:33N 59°18' E 005°47'1211.6
2016-Apr-30 08:33N 59°10' E 005°30'7 7.3
2016-Apr-30 07:32N 59°16' E 005°20'18 9.0
2016-Apr-30 05:29N 59°34' E 005°14'1010.5
2016-Apr-30 04:33N 59°42' E 005°25'1010.2
2016-Apr-30 03:33N 59°51' E 005°33'0 0.0
2016-Apr-28 06:33N 59°51' E 005°33'10 9.3
2016-Apr-28 05:31N 59°42' E 005°26'27 9.0
2016-Apr-28 02:33N 59°16' E 005°20'8 7.5
2016-Apr-28 01:33N 59°09' E 005°29'9 9.0
2016-Apr-28 00:33N 59°15' E 005°42'9 9.3
2016-Apr-27 23:33N 59°22' E 005°55'3 1.4
2016-Apr-27 21:29N 59°24' E 005°52'7 7.3
2016-Apr-27 20:33N 59°18' E 005°48'1111.5
2016-Apr-27 19:33N 59°10' E 005°31'27 8.7
2016-Apr-27 16:26N 59°36' E 005°17'1112.0
2016-Apr-27 15:33N 59°45' E 005°30'  
2016-Apr-23 22:33N 59°52' E 005°33'9 9.0
2016-Apr-23 21:33N 59°43' E 005°28'25 8.3
2016-Apr-23 18:33N 59°19' E 005°20'9 9.0
2016-Apr-23 17:33N 59°10' E 005°22'9 8.9
2016-Apr-23 16:33N 59°13' E 005°38'1010.0
2016-Apr-23 15:33N 59°20' E 005°53'5 2.0
2016-Apr-23 13:21N 59°24' E 005°52'4 5.3
2016-Apr-23 12:33N 59°20' E 005°54'1010.4
2016-Apr-23 11:33N 59°13' E 005°39'10 9.6
2016-Apr-23 10:33N 59°09' E 005°22'21 9.6
2016-Apr-23 08:19N 59°30' E 005°13'911.4
2016-Apr-23 07:31N 59°39' E 005°19'1111.3
2016-Apr-23 06:33N 59°47' E 005°33'  
2016-Apr-20 23:22N 59°56' E 005°29'910.4
2016-Apr-20 22:33N 59°47' E 005°33'10 9.8
2016-Apr-20 21:30N 59°39' E 005°21'  

Dump ship's entire track history